createdAt,value
2022-09-02T00:00:46.099Z,2.17
2022-09-02T00:03:13.079Z,1.85
2022-09-02T00:05:39.826Z,1.58
2022-09-02T00:08:07.131Z,2.03
2022-09-02T00:10:35.651Z,2.08
2022-09-02T00:13:02.550Z,1.67
2022-09-02T00:15:29.205Z,1.75
2022-09-02T00:17:56.360Z,1.58
2022-09-02T00:20:25.809Z,1.80
2022-09-02T00:22:52.365Z,1.85
2022-09-02T00:25:18.998Z,2.20
2022-09-02T00:27:45.673Z,1.95
2022-09-02T00:30:12.807Z,2.08
2022-09-02T00:32:39.646Z,2.13
2022-09-02T00:35:07.376Z,1.55
2022-09-02T00:37:33.998Z,1.80
2022-09-02T00:40:01.468Z,1.85
2022-09-02T00:42:28.074Z,2.08
2022-09-02T00:44:54.808Z,2.15
2022-09-02T00:47:22.221Z,2.05
2022-09-02T00:49:51.123Z,2.30
2022-09-02T00:52:20.656Z,2.15
2022-09-02T00:54:49.977Z,2.05
2022-09-02T00:57:19.640Z,2.08
2022-09-02T00:59:49.477Z,2.10
2022-09-02T01:02:17.218Z,1.92
2022-09-02T01:04:46.770Z,2.00
2022-09-02T01:07:13.345Z,1.92
2022-09-02T01:09:41.152Z,2.15
2022-09-02T01:12:08.817Z,2.33
2022-09-02T01:14:35.470Z,1.55
2022-09-02T01:17:02.657Z,1.70
2022-09-02T01:19:33.775Z,2.05
2022-09-02T01:22:00.595Z,2.10
2022-09-02T01:24:28.718Z,1.73
2022-09-02T01:26:56.161Z,1.73
2022-09-02T01:29:24.138Z,2.08
2022-09-02T01:31:51.735Z,1.70
2022-09-02T01:34:18.515Z,2.88
2022-09-02T01:36:45.651Z,2.05
2022-09-02T01:39:12.779Z,2.45
2022-09-02T01:41:39.279Z,1.90
2022-09-02T01:44:06.225Z,1.67
2022-09-02T01:46:33.858Z,2.05
2022-09-02T01:49:00.425Z,2.10
2022-09-02T01:51:26.951Z,2.38
2022-09-02T01:53:53.492Z,2.97
2022-09-02T01:56:19.994Z,2.30
2022-09-02T01:58:46.458Z,2.15
2022-09-02T02:01:13.114Z,1.92
2022-09-02T02:03:39.646Z,2.05
2022-09-02T02:06:16.579Z,2.35
2022-09-02T02:08:43.579Z,2.03
2022-09-02T02:11:10.595Z,2.03
2022-09-02T02:13:37.440Z,2.22
2022-09-02T02:16:04.272Z,2.20
2022-09-02T02:18:31.113Z,2.00
2022-09-02T02:20:57.597Z,2.65
2022-09-02T02:23:24.732Z,2.38
2022-09-02T02:25:51.365Z,2.53
2022-09-02T02:28:18.388Z,2.58
2022-09-02T02:30:44.983Z,1.90
2022-09-02T02:33:11.468Z,2.90
2022-09-02T02:35:38.055Z,2.42
2022-09-02T02:38:04.842Z,2.95
2022-09-02T02:40:31.564Z,1.95
2022-09-02T02:42:58.990Z,2.65
2022-09-02T02:45:25.595Z,2.75
2022-09-02T02:47:52.428Z,2.25
2022-09-02T02:50:20.477Z,2.80
2022-09-02T02:52:47.079Z,2.78
2022-09-02T02:55:14.147Z,2.05
2022-09-02T02:57:42.028Z,2.00
2022-09-02T03:00:13.223Z,2.30
2022-09-02T03:02:39.883Z,2.17
2022-09-02T03:05:07.897Z,2.17
2022-09-02T03:07:34.911Z,2.03
2022-09-02T03:10:04.844Z,2.58
2022-09-02T03:12:33.239Z,2.13
2022-09-02T03:14:59.861Z,2.60
2022-09-02T03:17:26.360Z,2.40
2022-09-02T03:19:54.236Z,1.90
2022-09-02T03:22:20.803Z,2.53
2022-09-02T03:24:47.701Z,2.70
2022-09-02T03:27:14.396Z,2.33
2022-09-02T03:29:40.898Z,2.08
2022-09-02T03:32:07.933Z,1.85
2022-09-02T03:34:34.584Z,2.30
2022-09-02T03:37:01.066Z,1.90
2022-09-02T03:39:27.654Z,2.28
2022-09-02T03:41:54.430Z,2.20
2022-09-02T03:44:20.951Z,2.10
2022-09-02T03:46:47.520Z,1.90
2022-09-02T03:49:14.995Z,2.33
2022-09-02T03:51:42.099Z,1.95
2022-09-02T03:54:10.280Z,2.10
2022-09-02T03:56:36.946Z,2.17
2022-09-02T03:59:04.405Z,2.13
2022-09-02T04:01:34.597Z,2.28
2022-09-02T04:04:02.102Z,2.25
2022-09-02T04:06:32.723Z,2.30
2022-09-02T04:08:59.586Z,2.03
2022-09-02T04:11:26.160Z,2.00
2022-09-02T04:13:53.981Z,1.73
2022-09-02T04:16:22.567Z,2.10
2022-09-02T04:18:49.150Z,2.08
2022-09-02T04:21:16.124Z,1.95
2022-09-02T04:23:43.409Z,1.63
2022-09-02T04:26:12.750Z,1.85
2022-09-02T04:28:39.859Z,2.05
2022-09-02T04:31:07.308Z,2.13
2022-09-02T04:33:34.711Z,2.80
2022-09-02T04:36:04.933Z,2.65
2022-09-02T04:38:31.739Z,2.40
2022-09-02T04:40:58.546Z,2.58
2022-09-02T04:43:25.222Z,2.65
2022-09-02T04:45:51.822Z,2.80
2022-09-02T04:48:19.175Z,2.58
2022-09-02T04:50:45.910Z,2.58
2022-09-02T04:53:12.471Z,2.72
2022-09-02T04:55:40.783Z,2.60
2022-09-02T04:58:07.615Z,2.33
2022-09-02T05:00:34.391Z,3.53
2022-09-02T05:03:01.019Z,3.63
2022-09-02T05:05:27.584Z,2.50
2022-09-02T05:07:56.361Z,3.08
2022-09-02T05:10:23.013Z,2.67
2022-09-02T05:12:49.554Z,3.03
2022-09-02T05:15:16.803Z,3.00
2022-09-02T05:17:43.486Z,3.70
2022-09-02T05:20:10.122Z,3.45
2022-09-02T05:22:36.979Z,3.17
2022-09-02T05:25:06.519Z,3.55
2022-09-02T05:27:33.456Z,3.97
2022-09-02T05:30:00.027Z,5.00
2022-09-02T05:32:27.823Z,3.83
2022-09-02T05:34:54.927Z,3.72
2022-09-02T05:37:21.521Z,4.32
2022-09-02T05:39:48.434Z,4.10
2022-09-02T05:42:16.732Z,4.78
2022-09-02T05:44:45.255Z,4.30
2022-09-02T05:47:12.098Z,3.90
2022-09-02T05:49:38.881Z,5.25
2022-09-02T05:52:05.669Z,4.90
2022-09-02T05:54:33.980Z,4.97
2022-09-02T05:57:02.035Z,5.97
2022-09-02T05:59:29.325Z,5.93
2022-09-02T06:01:56.564Z,5.95
2022-09-02T06:04:23.697Z,5.57
2022-09-02T06:06:51.135Z,5.90
2022-09-02T06:09:19.195Z,5.47
2022-09-02T06:11:49.342Z,6.80
2022-09-02T06:14:17.389Z,6.38
2022-09-02T06:16:44.398Z,5.85
2022-09-02T06:19:11.036Z,5.75
2022-09-02T06:21:37.929Z,5.75
2022-09-02T06:24:05.435Z,6.18
2022-09-02T06:26:32.174Z,6.55
2022-09-02T06:28:58.649Z,5.95
2022-09-02T06:31:25.274Z,5.38
2022-09-02T06:33:53.136Z,6.45
2022-09-02T06:36:21.430Z,5.55
2022-09-02T06:38:49.035Z,4.72
2022-09-02T06:41:17.498Z,5.53
2022-09-02T06:43:43.995Z,4.50
2022-09-02T06:46:16.116Z,5.40
2022-09-02T06:48:42.686Z,4.10
2022-09-02T06:51:09.206Z,4.25
2022-09-02T06:53:35.686Z,3.70
2022-09-02T06:56:02.412Z,3.05
2022-09-02T06:58:28.971Z,3.63
2022-09-02T07:00:55.610Z,3.03
2022-09-02T07:03:40.751Z,3.33
2022-09-02T07:06:09.806Z,3.35
2022-09-02T07:08:37.580Z,3.15
2022-09-02T07:11:05.019Z,3.38
2022-09-02T07:13:31.672Z,3.30
2022-09-02T07:15:58.499Z,3.60
2022-09-02T07:18:25.116Z,3.35
2022-09-02T07:20:52.642Z,3.10
2022-09-02T07:23:19.251Z,3.60
2022-09-02T07:25:45.908Z,3.40
2022-09-02T07:28:12.550Z,2.75
2022-09-02T07:30:41.124Z,3.08
2022-09-02T07:33:07.739Z,2.83
2022-09-02T07:35:34.568Z,3.00
2022-09-02T07:38:01.151Z,2.58
2022-09-02T07:40:27.695Z,1.90
2022-09-02T07:42:54.583Z,2.10
2022-09-02T07:45:21.278Z,2.50
2022-09-02T07:47:49.198Z,2.67
2022-09-02T07:50:19.134Z,3.00
2022-09-02T07:52:46.667Z,2.50
2022-09-02T07:55:17.490Z,3.20
2022-09-02T07:57:43.977Z,2.72
2022-09-02T08:00:12.411Z,3.03
2022-09-02T08:02:39.012Z,2.80
2022-09-02T08:05:05.872Z,2.78
2022-09-02T08:07:32.365Z,2.80
2022-09-02T08:10:01.059Z,2.72
2022-09-02T08:12:28.280Z,3.65
2022-09-02T08:14:58.097Z,3.75
2022-09-02T08:17:25.215Z,2.95
2022-09-02T08:19:51.741Z,3.22
2022-09-02T08:22:18.256Z,2.75
2022-09-02T08:24:44.863Z,2.55
2022-09-02T08:27:11.766Z,2.15
2022-09-02T08:29:38.279Z,2.58
2022-09-02T08:32:04.964Z,2.30
2022-09-02T08:34:31.503Z,2.25
2022-09-02T08:36:58.030Z,3.28
2022-09-02T08:39:24.717Z,2.55
2022-09-02T08:42:29.726Z,2.67
2022-09-02T08:47:26.861Z,2.53
2022-09-02T08:49:55.509Z,2.05
2022-09-02T08:52:31.332Z,2.33
2022-09-02T08:54:58.154Z,2.60
2022-09-02T08:57:26.598Z,2.92
2022-09-02T09:00:01.147Z,2.08
2022-09-02T09:02:54.042Z,2.08
2022-09-02T09:05:20.554Z,2.25
2022-09-02T09:07:59.856Z,2.08
2022-09-02T09:10:26.351Z,1.55
2022-09-02T09:13:11.442Z,1.88
2022-09-02T09:15:49.831Z,1.77
2022-09-02T09:18:19.261Z,2.00
2022-09-02T09:20:46.619Z,1.63
2022-09-02T09:23:23.128Z,1.83
2022-09-02T09:25:52.448Z,1.90
2022-09-02T09:28:18.925Z,1.52
2022-09-02T09:30:45.661Z,1.75
2022-09-02T09:33:15.129Z,2.15
2022-09-02T09:35:48.033Z,1.60
2022-09-02T09:38:14.802Z,1.60
2022-09-02T09:40:41.550Z,1.17
2022-09-02T09:43:13.192Z,1.40
2022-09-02T09:48:18.236Z,1.67
2022-09-02T09:50:48.630Z,1.58
2022-09-02T09:53:21.368Z,2.30
2022-09-02T09:55:58.372Z,2.05
2022-09-02T09:58:32.142Z,1.48
2022-09-02T10:01:00.801Z,1.88
2022-09-02T10:03:32.939Z,1.67
2022-09-02T10:06:17.115Z,2.03
2022-09-02T10:08:56.811Z,2.13
2022-09-02T10:11:27.492Z,2.03
2022-09-02T10:14:07.142Z,1.58
2022-09-02T10:16:52.300Z,1.75
2022-09-02T10:19:26.609Z,1.77
2022-09-02T10:22:02.388Z,2.72
2022-09-02T10:24:47.194Z,1.55
2022-09-02T10:27:20.546Z,1.60
2022-09-02T10:29:57.892Z,1.50
2022-09-02T10:32:27.237Z,1.48
2022-09-02T10:35:11.831Z,1.75
2022-09-02T10:37:57.272Z,1.77
2022-09-02T10:40:27.497Z,2.03
2022-09-02T10:43:07.277Z,1.77
2022-09-02T10:45:39.622Z,2.03
2022-09-02T10:48:24.872Z,1.90
2022-09-02T10:50:55.461Z,1.27
2022-09-02T10:53:43.664Z,1.30
2022-09-02T10:56:13.187Z,1.75
2022-09-02T10:58:44.083Z,1.80
2022-09-02T11:01:14.716Z,1.27
2022-09-02T11:03:44.089Z,1.83
2022-09-02T11:06:21.046Z,1.63
2022-09-02T11:08:53.351Z,1.25
2022-09-02T11:11:26.880Z,1.52
2022-09-02T11:13:58.875Z,1.50
2022-09-02T11:16:32.192Z,1.67
2022-09-02T11:19:05.591Z,1.38
2022-09-02T11:21:50.762Z,1.70
2022-09-02T11:24:25.955Z,1.65
2022-09-02T11:27:08.678Z,2.05
2022-09-02T11:29:53.463Z,1.75
2022-09-02T11:32:25.972Z,1.50
2022-09-02T11:34:55.821Z,1.30
2022-09-02T11:37:33.928Z,1.30
2022-09-02T11:40:17.145Z,1.10
2022-09-02T11:42:53.390Z,1.20
2022-09-02T11:45:39.548Z,1.60
2022-09-02T11:48:09.022Z,1.48
2022-09-02T11:50:44.210Z,1.60
2022-09-02T11:53:13.723Z,1.10
2022-09-02T11:55:42.053Z,1.52
2022-09-02T11:58:09.091Z,1.30
2022-09-02T12:00:55.764Z,1.73
2022-09-02T12:03:42.978Z,1.48
2022-09-02T12:06:11.873Z,1.02
2022-09-02T12:08:42.103Z,0.95
2022-09-02T12:11:09.209Z,1.10
2022-09-02T12:13:35.791Z,1.13
2022-09-02T12:16:21.410Z,1.33
2022-09-02T12:19:13.367Z,1.30
2022-09-02T12:22:01.223Z,1.50
2022-09-02T12:24:27.827Z,1.10
2022-09-02T12:26:54.317Z,1.40
2022-09-02T12:29:22.199Z,1.30
2022-09-02T12:31:49.581Z,1.65
2022-09-02T12:34:25.209Z,1.20
2022-09-02T12:36:54.871Z,1.30
2022-09-02T12:39:24.623Z,1.20
2022-09-02T12:41:55.322Z,1.10
2022-09-02T12:44:31.710Z,1.60
2022-09-02T12:47:05.540Z,1.00
2022-09-02T12:52:06.888Z,0.77
2022-09-02T12:54:39.551Z,1.10
2022-09-02T12:57:06.991Z,1.38
2022-09-02T12:59:35.392Z,1.42
2022-09-02T13:02:20.408Z,1.08
2022-09-02T13:04:56.077Z,1.13
2022-09-02T13:07:41.585Z,1.52
2022-09-02T13:10:26.763Z,1.10
2022-09-02T13:12:53.293Z,1.20
2022-09-02T13:15:25.691Z,1.10
2022-09-02T13:17:52.164Z,1.30
2022-09-02T13:20:35.019Z,1.15
2022-09-02T13:23:08.601Z,1.05
2022-09-02T13:25:36.358Z,1.10
2022-09-02T13:28:13.233Z,1.10
2022-09-02T13:30:40.046Z,1.20
2022-09-02T13:33:08.146Z,1.00
2022-09-02T13:35:38.440Z,1.30
2022-09-02T13:38:05.444Z,1.10
2022-09-02T13:40:33.980Z,1.55
2022-09-02T13:43:01.691Z,1.10
2022-09-02T13:45:34.182Z,1.30
2022-09-02T13:48:07.817Z,1.30
2022-09-02T13:50:36.423Z,1.85
2022-09-02T13:55:55.598Z,1.63
2022-09-02T13:58:32.309Z,1.40
2022-09-02T14:01:09.924Z,1.00
2022-09-02T14:03:36.962Z,1.20
2022-09-02T14:06:08.140Z,1.10
2022-09-02T14:08:35.235Z,1.10
2022-09-02T14:11:07.372Z,1.10
2022-09-02T14:13:34.869Z,1.10
2022-09-02T14:16:22.236Z,1.30
2022-09-02T14:19:04.870Z,1.05
2022-09-02T14:21:32.042Z,1.38
2022-09-02T14:23:58.710Z,0.90
2022-09-02T14:26:31.331Z,1.08
2022-09-02T14:28:57.847Z,1.40
2022-09-02T14:31:26.792Z,1.30
2022-09-02T14:33:53.547Z,1.23
2022-09-02T14:36:21.478Z,1.10
2022-09-02T14:38:48.532Z,1.02
2022-09-02T14:41:15.070Z,1.40
2022-09-02T14:43:43.847Z,1.27
2022-09-02T14:46:14.867Z,1.38
2022-09-02T14:48:41.516Z,1.45
2022-09-02T14:51:08.373Z,1.08
2022-09-02T14:53:37.615Z,1.48
2022-09-02T14:56:05.207Z,1.52
2022-09-02T14:58:31.734Z,0.95
2022-09-02T15:00:59.613Z,1.30
2022-09-02T15:03:26.515Z,1.00
2022-09-02T15:05:53.874Z,1.10
2022-09-02T15:08:20.628Z,1.05
2022-09-02T15:10:47.305Z,1.15
2022-09-02T15:13:18.082Z,1.00
2022-09-02T15:15:44.706Z,1.30
2022-09-02T15:18:12.648Z,1.00
2022-09-02T15:20:39.174Z,1.48
2022-09-02T15:23:05.753Z,0.90
2022-09-02T15:25:34.229Z,1.10
2022-09-02T15:28:01.159Z,1.20
2022-09-02T15:30:27.719Z,1.52
2022-09-02T15:32:54.216Z,1.42
2022-09-02T15:35:20.787Z,0.98
2022-09-02T15:37:49.795Z,0.95
2022-09-02T15:40:16.299Z,1.08
2022-09-02T15:42:42.801Z,1.15
2022-09-02T15:45:09.952Z,1.13
2022-09-02T15:47:37.058Z,1.00
2022-09-02T15:50:04.676Z,0.88
2022-09-02T15:52:31.335Z,1.15
2022-09-02T15:54:58.015Z,1.65
2022-09-02T15:57:24.510Z,1.02
2022-09-02T15:59:51.618Z,1.13
2022-09-02T16:02:18.441Z,1.10
2022-09-02T16:04:45.063Z,0.90
2022-09-02T16:07:15.367Z,1.20
2022-09-02T16:09:43.563Z,1.50
2022-09-02T16:12:10.415Z,1.20
2022-09-02T16:14:37.055Z,1.17
2022-09-02T16:17:03.776Z,0.82
2022-09-02T16:19:30.652Z,1.48
2022-09-02T16:21:57.391Z,0.93
2022-09-02T16:24:24.067Z,0.80
2022-09-02T16:26:54.020Z,1.00
2022-09-02T16:29:21.131Z,1.00
2022-09-02T16:34:35.043Z,1.80
2022-09-02T16:37:01.613Z,1.27
2022-09-02T16:39:28.161Z,1.48
2022-09-02T16:41:54.815Z,1.02
2022-09-02T16:44:22.510Z,1.50
2022-09-02T16:46:50.075Z,1.25
2022-09-02T16:49:18.528Z,1.27
2022-09-02T16:51:49.393Z,0.80
2022-09-02T16:54:17.490Z,1.30
2022-09-02T16:56:47.951Z,0.90
2022-09-02T16:59:14.494Z,1.13
2022-09-02T17:01:43.893Z,0.95
2022-09-02T17:04:10.537Z,1.33
2022-09-02T17:06:42.037Z,0.82
2022-09-02T17:09:09.162Z,1.40
2022-09-02T17:11:41.357Z,1.50
2022-09-02T17:14:16.309Z,1.38
2022-09-02T17:16:44.604Z,1.00
2022-09-02T17:19:11.681Z,1.20
2022-09-02T17:21:40.810Z,1.00
2022-09-02T17:24:08.567Z,1.42
2022-09-02T17:26:36.064Z,0.95
2022-09-02T17:29:07.691Z,1.33
2022-09-02T17:31:34.197Z,1.30
2022-09-02T17:34:05.315Z,1.00
2022-09-02T17:36:32.688Z,1.17
2022-09-02T17:39:00.346Z,1.23
2022-09-02T17:41:46.892Z,1.92
2022-09-02T17:44:15.260Z,1.40
2022-09-02T17:46:42.935Z,1.38
2022-09-02T17:49:17.925Z,1.30
2022-09-02T17:51:45.065Z,1.08
2022-09-02T17:54:12.285Z,1.27
2022-09-02T17:56:57.574Z,1.13
2022-09-02T17:59:24.137Z,1.60
2022-09-02T18:01:50.601Z,1.70
2022-09-02T18:04:35.838Z,1.40
2022-09-02T18:07:11.367Z,1.20
2022-09-02T18:09:38.987Z,1.45
2022-09-02T18:12:07.298Z,1.35
2022-09-02T18:14:35.068Z,1.70
2022-09-02T18:17:08.330Z,1.35
2022-09-02T18:19:38.149Z,2.13
2022-09-02T18:22:22.853Z,1.88
2022-09-02T18:24:59.079Z,1.42
2022-09-02T18:27:45.936Z,1.85
2022-09-02T18:30:21.337Z,1.85
2022-09-02T18:32:55.301Z,2.22
2022-09-02T18:35:31.714Z,1.75
2022-09-02T18:37:58.233Z,1.83
2022-09-02T18:40:37.760Z,2.50
2022-09-02T18:43:06.710Z,3.70
2022-09-02T18:45:35.668Z,4.80
2022-09-02T18:48:07.529Z,2.72
2022-09-02T18:51:12.990Z,4.00
2022-09-02T18:53:40.679Z,2.22
2022-09-02T18:56:09.046Z,2.55
2022-09-02T18:58:38.631Z,2.50
2022-09-02T19:01:25.863Z,3.08
2022-09-02T19:03:52.762Z,2.38
2022-09-02T19:06:21.346Z,3.28
2022-09-02T19:08:50.225Z,3.53
2022-09-02T19:11:18.015Z,3.38
2022-09-02T19:13:52.778Z,3.30
2022-09-02T19:16:20.765Z,3.63
2022-09-02T19:18:49.614Z,3.75
2022-09-02T19:21:31.545Z,3.35
2022-09-02T19:23:58.097Z,3.22
2022-09-02T19:26:24.636Z,4.57
2022-09-02T19:28:52.035Z,25.98
2022-09-02T19:31:21.017Z,72.82
2022-09-02T19:33:52.841Z,52.60
2022-09-02T19:36:20.484Z,93.55
2022-09-02T19:38:47.010Z,89.25
2022-09-02T19:41:14.867Z,54.05
2022-09-02T19:43:41.412Z,64.15
2022-09-02T19:46:17.353Z,64.72
2022-09-02T19:48:54.434Z,31.77
2022-09-02T19:51:25.278Z,19.00
2022-09-02T19:53:56.646Z,18.55
2022-09-02T19:56:29.004Z,14.73
2022-09-02T19:58:55.774Z,8.93
2022-09-02T20:01:22.360Z,13.82
2022-09-02T20:03:48.997Z,15.75
2022-09-02T20:06:15.549Z,7.47
2022-09-02T20:08:42.255Z,12.95
2022-09-02T20:11:08.776Z,8.63
2022-09-02T20:13:40.295Z,9.73
2022-09-02T20:16:16.612Z,8.05
2022-09-02T20:18:46.813Z,9.10
2022-09-02T20:21:18.646Z,8.52
2022-09-02T20:23:45.186Z,10.35
2022-09-02T20:26:11.820Z,8.10
2022-09-02T20:31:57.383Z,8.50
2022-09-02T20:34:39.306Z,9.07
2022-09-02T20:37:21.734Z,9.05
2022-09-02T20:39:51.395Z,8.32
2022-09-02T20:42:17.945Z,6.38
2022-09-02T20:44:51.003Z,6.40
2022-09-02T20:47:29.409Z,7.17
2022-09-02T20:50:14.430Z,9.32
2022-09-02T20:52:45.063Z,5.00
2022-09-02T20:55:11.798Z,5.50
2022-09-02T20:57:50.599Z,7.68
2022-09-02T21:00:20.548Z,8.00
2022-09-02T21:02:54.482Z,6.88
2022-09-02T21:05:25.098Z,8.38
2022-09-02T21:08:01.469Z,5.70
2022-09-02T21:10:33.450Z,4.47
2022-09-02T21:13:06.931Z,4.00
2022-09-02T21:15:38.763Z,5.03
2022-09-02T21:18:11.916Z,5.28
2022-09-02T21:20:44.506Z,6.80
2022-09-02T21:23:19.934Z,4.55
2022-09-02T21:25:56.079Z,5.70
2022-09-02T21:28:26.123Z,4.82
2022-09-02T21:30:56.290Z,5.35
2022-09-02T21:33:25.714Z,4.13
2022-09-02T21:35:53.339Z,4.53
2022-09-02T21:38:32.082Z,4.07
2022-09-02T21:41:08.220Z,5.35
2022-09-02T21:43:37.824Z,4.57
2022-09-02T21:46:05.602Z,85.55
2022-09-02T21:48:55.390Z,37.50
2022-09-02T21:51:36.125Z,19.65
2022-09-02T21:54:10.777Z,13.05
2022-09-02T21:56:42.513Z,10.50
2022-09-02T21:59:11.438Z,7.85
2022-09-02T22:01:55.895Z,7.38
2022-09-02T22:04:25.793Z,6.88
2022-09-02T22:06:58.057Z,6.38
2022-09-02T22:09:32.034Z,6.45
2022-09-02T22:14:34.021Z,7.10
2022-09-02T22:17:04.899Z,5.10
2022-09-02T22:19:34.068Z,7.00
2022-09-02T22:22:08.442Z,9.30
2022-09-02T22:24:37.428Z,6.18
2022-09-02T22:27:12.651Z,6.03
2022-09-02T22:29:44.927Z,4.38
2022-09-02T22:32:14.241Z,6.50
2022-09-02T22:34:43.691Z,5.30
2022-09-02T22:37:12.139Z,6.10
2022-09-02T22:39:47.191Z,6.22
2022-09-02T22:42:23.475Z,5.47
2022-09-02T22:45:17.857Z,6.00
2022-09-02T22:48:05.141Z,4.60
2022-09-02T22:50:52.703Z,4.38
2022-09-02T22:53:19.233Z,14.88
2022-09-02T22:55:48.642Z,7.43
2022-09-02T22:58:21.254Z,6.00
2022-09-02T23:01:17.472Z,7.22
2022-09-02T23:03:49.954Z,6.53
2022-09-02T23:06:17.448Z,7.90
2022-09-02T23:08:44.137Z,5.82
2022-09-02T23:11:13.399Z,5.85
2022-09-02T23:13:51.746Z,6.28
2022-09-02T23:16:22.260Z,4.90
2022-09-02T23:18:55.669Z,5.63
2022-09-02T23:21:32.826Z,4.47
2022-09-02T23:24:20.004Z,4.10
2022-09-02T23:26:55.087Z,4.57
2022-09-02T23:29:28.756Z,4.50
2022-09-02T23:32:10.046Z,5.22
2022-09-02T23:34:51.573Z,3.80
2022-09-02T23:37:32.456Z,4.90
2022-09-02T23:40:11.583Z,5.15
2022-09-02T23:42:39.103Z,3.85
2022-09-02T23:45:21.869Z,4.07
2022-09-02T23:47:48.366Z,4.45
2022-09-02T23:50:21.156Z,3.53
2022-09-02T23:52:56.399Z,3.42
2022-09-02T23:55:29.067Z,4.22
2022-09-02T23:58:08.036Z,4.40
